• Join FlightAware (Why Join?)
  • Login
  • US Flag 
01:38PM EST


 

Airport Tracker/Info


-or-


 

Live Flight TrackerFlight Track Log ✈ PDT4158 ✈ 13-May-2012 ✈ KROA - KLGA

Flight Track Log - Related Links

Times and Time Zones

All times are in EDT time to prevent confusion due to time zone crossing. See the PDT4158 flight status page for this flight to view local times or setup timezone preferences in your user account.

Time Position Orientation Groundspeed Altitude Reporting Facility
EDT Latitude Longitude Course Direction KTS MPH feet Rate Location/Type
04:58PM 37.3393 -79.9379 105° East  Level FlightAware Approximate
04:59PM 37.3652 -79.8674 177° South  Level FlightAware Approximate
05:00PM 37.3910 -79.7970 219° Southwest  Level FlightAware Approximate
05:02PM 37.3233 -79.8647 55° Northeast 174 200 5,700  Level Washington Center
05:03PM 37.3500 -79.8164 58° Northeast 174 200 6,700 1,020 Climbing Washington Center
05:04PM 37.3792 -79.7581 54° Northeast 174 200 7,800 900 Climbing Washington Center
05:05PM 37.4081 -79.7072 72° East 174 200 8,600 840 Climbing Washington Center
05:06PM 37.4250 -79.6428 77° East 174 200 9,500 900 Climbing Washington Center
05:07PM 37.4353 -79.5858 75° East 186 214 10,400 900 Climbing Washington Center
05:08PM 37.4500 -79.5186 75° East 186 214 11,300 780 Climbing Washington Center
05:09PM 37.4647 -79.4511 78° East 186 214 12,100 840 Climbing Washington Center
05:10PM 37.4747 -79.3942 75° East 181 208 13,000 840 Climbing Washington Center
05:11PM 37.4894 -79.3242 73° East 181 208 13,800 720 Climbing Washington Center
05:12PM 37.5036 -79.2672 75° East 181 208 14,500 660 Climbing Washington Center
05:13PM 37.5186 -79.1947 74° East 181 208 15,200 660 Climbing Washington Center
05:14PM 37.5331 -79.1300 77° East 195 224 15,800 540 Climbing Washington Center
05:15PM 37.5453 -79.0625 76° East 200 230 16,300 540 Climbing Washington Center
05:16PM 37.5622 -78.9794 78° East 208 239 17,000 300 Climbing Washington Center
05:17PM 37.5750 -78.9014 74° East 213 245 17,000  Level Washington Center
05:18PM 37.5939 -78.8156 75° East 233 268 17,000  Level Washington Center
05:19PM 37.6131 -78.7272 75° East 246 283 17,000  Level Washington Center
05:20PM 37.6294 -78.6519 75° East 251 289 17,000  Level Washington Center
05:21PM 37.6486 -78.5608 77° East 256 295 17,000  Level Washington Center
05:22PM 37.6653 -78.4725 78° East 256 295 17,000  Level Washington Center
05:23PM 37.6797 -78.3836 75° East 256 295 17,000  Level Washington Center
05:24PM 37.7008 -78.2872 78° East 256 295 17,000  Level Washington Center
05:25PM 37.7153 -78.2011 79° East 256 295 17,000  Level Washington Center
05:26PM 37.7275 -78.1203 73° East 256 295 17,000  Level Washington Center
05:27PM 37.7481 -78.0369 78° East 256 295 17,000  Level Washington Center
05:28PM 37.7622 -77.9506 78° East 256 295 17,000  Level Washington Center
05:29PM 37.7764 -77.8669 75° East 256 295 17,000  Level Washington Center
05:30PM 37.7947 -77.7783 75° East 256 295 17,000  Level Washington Center
05:31PM 37.8128 -77.6919 73° East 256 295 17,000  Level Washington Center
05:32PM 37.8331 -77.6058 77° East 256 295 17,000  Level Washington Center
05:33PM 37.8492 -77.5167 77° East 256 295 17,000  Level Washington Center
05:34PM 37.8653 -77.4278 79° East 256 295 17,000  Level Washington Center
05:35PM 37.8789 -77.3386 76° East 256 295 17,000  Level Washington Center
05:36PM 37.8969 -77.2497 79° East 256 295 17,000  Level Washington Center
05:37PM 37.9106 -77.1606 77° East 256 295 17,000  Level Washington Center
05:38PM 37.9264 -77.0714 78° East 256 295 17,000  Level Washington Center
05:39PM 37.9419 -76.9819 76° East 256 295 17,000  Level Washington Center
05:40PM 37.9597 -76.8928 70° East 256 295 17,000  Level Washington Center
05:41PM 37.9836 -76.8089 44° Northeast 256 295 17,000  Level Washington Center
05:42PM 38.0364 -76.7439 44° Northeast 247 284 17,000  Level Washington Center
05:43PM 38.0892 -76.6786 47° Northeast 253 291 17,000  Level Washington Center
05:44PM 38.1439 -76.6031 50° Northeast 258 297 17,000 -60 Level Washington Center
05:45PM 38.1903 -76.5322 49° Northeast 264 304 16,900 -600 Descending Washington Center
05:46PM 38.2408 -76.4589 44° Northeast 264 304 15,900 -1,020 Descending Washington Center
05:47PM 38.2997 -76.3856 North 276 318 14,900 -960 Descending Washington Center
05:48PM 38.3750 -76.3731 11° North 276 318 14,100 -960 Descending Washington Center
05:49PM 38.4669 -76.3500 15° North 282 325 13,000 -600 Descending Washington Center
05:50PM 38.5422 -76.3244 11° North 287 330 13,000  Level Washington Center
05:51PM 38.6172 -76.3064 13° North 277 319 13,000  Level Washington Center
05:52PM 38.6925 -76.2833 16° North 277 319 13,000  Level Washington Center
05:53PM 38.7614 -76.2572 13° North 271 312 13,000  Level Washington Center
05:54PM 38.8325 -76.2367 13° North 260 299 13,100 -120 Climbing Washington Center
05:55PM 38.9056 -76.2158 12° North 260 299 12,800 -480 Descending Washington Center
05:56PM 38.9828 -76.1950 14° North 266 306 12,200 -360 Descending Washington Center
05:57PM 39.0536 -76.1717 15° North 266 306 12,100 -60 Descending Washington Center
05:58PM 39.1267 -76.1456 16° North 266 306 12,100  Level Washington Center
05:59PM 39.1914 -76.1217 22° Northeast 254 292 12,100  Level Washington Center
06:01PM 39.2919 -76.0697 48° Northeast 251 289 12,100  Level FAA TRACON SMA TRACON (SMA)
06:01PM 39.3222 -76.0267 44° Northeast 255 293 12,100  Level FAA TRACON SMA TRACON (SMA)
06:02PM 39.3608 -75.9778 38° Northeast 254 292 12,100  Level FAA TRACON SMA TRACON (SMA)
06:03PM 39.3933 -75.9447 42° Northeast 253 291 12,100  Level FAA TRACON SMA TRACON (SMA)
06:03PM 39.4308 -75.9006 46° Northeast 253 291 12,100  Level FAA TRACON SMA TRACON (SMA)
06:04PM 39.4647 -75.8550 50° Northeast 254 292 12,100  Level FAA TRACON SMA TRACON (SMA)
06:05PM 39.4911 -75.8139 63° Northeast 257 296 12,100  Level FAA TRACON SMA TRACON (SMA)
06:05PM 39.5142 -75.7553 60° Northeast 252 290 12,100  Level FAA TRACON SMA TRACON (SMA)
06:06PM 39.5381 -75.7008 58° Northeast 254 292 12,100  Level FAA TRACON SMA TRACON (SMA)
06:07PM 39.5603 -75.6539 62° Northeast 254 292 12,100  Level FAA TRACON SMA TRACON (SMA)
06:07PM 39.5836 -75.5964 57° Northeast 254 292 12,100  Level FAA TRACON SMA TRACON (SMA)
06:08PM 39.6106 -75.5433 55° Northeast 253 291 12,100  Level FAA TRACON SMA TRACON (SMA)
06:09PM 39.6344 -75.4986 60° Northeast 254 292 12,100  Level FAA TRACON SMA TRACON (SMA)
06:09PM 39.6603 -75.4414 61° Northeast 256 295 12,100  Level FAA TRACON SMA TRACON (SMA)
06:10PM 39.6842 -75.3856 65° Northeast 258 297 12,100  Level FAA TRACON SMA TRACON (SMA)
06:11PM 39.7047 -75.3269 60° Northeast 257 296 12,100  Level FAA TRACON SMA TRACON (SMA)
06:11PM 39.7264 -75.2772 52° Northeast 258 297 12,100 -120 Level FAA TRACON SMA TRACON (SMA)
06:12PM 39.7567 -75.2267 37° Northeast 265 305 12,000 -300 Descending FAA TRACON SMA TRACON (SMA)
06:13PM 39.7964 -75.1881 52° Northeast 257 296 11,700 -720 Descending FAA TRACON SMA TRACON (SMA)
06:13PM 39.8250 -75.1408 81° East 291 335 11,100 -1,020 Descending FAA TRACON SMA TRACON (SMA)
06:14PM 39.8336 -75.0714 76° East 282 325 10,400 -1,080 Descending FAA TRACON SMA TRACON (SMA)
06:15PM 39.8467 -75.0044 52° Northeast 277 319 9,700 -1,080 Descending FAA TRACON SMA TRACON (SMA)
06:15PM 39.8778 -74.9531 40° Northeast 265 305 9,000 -1,020 Descending FAA TRACON SMA TRACON (SMA)
06:16PM 39.9122 -74.9147 46° Northeast 263 303 8,400 -720 Descending FAA TRACON SMA TRACON (SMA)
06:17PM 39.9461 -74.8694 47° Northeast 247 284 8,100 -300 Descending FAA TRACON SMA TRACON (SMA)
06:17PM 39.9781 -74.8242 48° Northeast 246 283 8,000 -120 Descending FAA TRACON SMA TRACON (SMA)
06:18PM 40.0064 -74.7833 47° Northeast 244 281 8,000 60 Level FAA TRACON SMA TRACON (SMA)
06:19PM 40.0381 -74.7386 48° Northeast 241 277 8,100 60 Climbing FAA TRACON SMA TRACON (SMA)
06:19PM 40.0692 -74.6942 52° Northeast 240 276 8,100  Level FAA TRACON SMA TRACON (SMA)
06:20PM 40.0950 -74.6517 49° Northeast 241 277 8,100  Level FAA TRACON SMA TRACON (SMA)
06:21PM 40.1253 -74.6056 50° Northeast 242 278 8,100  Level FAA TRACON SMA TRACON (SMA)
06:21PM 40.1547 -74.5592 49° Northeast 240 276 8,100  Level FAA TRACON SMA TRACON (SMA)
06:22PM 40.1814 -74.5192 43° Northeast 241 277 8,100  Level FAA TRACON SMA TRACON (SMA)
06:23PM 40.2153 -74.4772 39° Northeast 239 275 8,100  Level FAA TRACON SMA TRACON (SMA)
06:23PM 40.2483 -74.4422 43° Northeast 220 253 8,100  Level FAA TRACON SMA TRACON (SMA)
06:24PM 40.2753 -74.4089 47° Northeast 217 250 8,100  Level FAA TRACON SMA TRACON (SMA)
06:25PM 40.3047 -74.3678 46° Northeast 225 259 8,100  Level FAA TRACON SMA TRACON (SMA)
06:25PM 40.3353 -74.3256 47° Northeast 228 262 8,100  Level FAA TRACON SMA TRACON (SMA)
06:26PM 40.3522 -74.3017 46° Northeast 230 265 8,100 -420 Level FAA TRACON SMA TRACON (SMA)
06:29PM 40.5000 -74.1000 27° Northeast 236 272 6,700 -720 Descending New York TRACON
06:30PM 40.5500 -74.0667 11° North 231 266 5,300 -900 Descending New York TRACON
06:32PM 40.6833 -74.0333 14° North 231 266 4,100 -420 Descending New York TRACON
06:33PM 40.7333 -74.0167 21° North 229 264 4,100  Level New York TRACON
06:34PM 40.8000 -73.9833 21° North 239 275 4,100  Level New York TRACON
06:35PM 40.8667 -73.9500 37° Northeast 232 267 4,100  Level New York TRACON
06:36PM 40.9167 -73.9000 37° Northeast 235 270 4,100  Level New York TRACON